Time;durP1;ratioP1;P1;durP2;ratioP2;P2;SDS_P1;SDS_P2;PMS_P1;PMS_P2;Temp;Humidity;BMP_temperature;BMP_pressure;BME280_temperature;BME280_humidity;BME280_pressure;Samples;Min_cycle;Max_cycle;Signal;HPM_P1;HPM_P2
2023/08/24 00:00:32;;;;;;;6.72;3.42;;;20.50;99.90;;;;;;5051395;28;20627;-50
2023/08/24 00:02:58;;;;;;;11.75;3.40;;;20.50;99.90;;;;;;5051410;28;20177;-51
2023/08/24 00:05:23;;;;;;;10.82;3.15;;;20.50;99.90;;;;;;5051123;28;20569;-51
2023/08/24 00:07:49;;;;;;;6.72;3.05;;;20.50;99.90;;;;;;5051153;28;21190;-51
2023/08/24 00:10:15;;;;;;;5.65;3.35;;;20.60;99.90;;;;;;5051096;28;20533;-51
2023/08/24 00:12:41;;;;;;;3.38;2.72;;;20.60;99.90;;;;;;5050908;28;20758;-51
2023/08/24 00:15:08;;;;;;;5.35;3.00;;;20.50;99.90;;;;;;5051005;28;20201;-52
2023/08/24 00:17:34;;;;;;;4.50;2.92;;;20.40;99.90;;;;;;5051230;28;20171;-51
2023/08/24 00:20:04;;;;;;;5.65;2.65;;;20.30;99.90;;;;;;5051013;28;20171;-51
2023/08/24 00:22:30;;;;;;;4.10;2.78;;;20.20;99.90;;;;;;5051405;28;20254;-52
2023/08/24 00:24:55;;;;;;;6.32;3.15;;;20.20;99.90;;;;;;5051297;28;20205;-51
2023/08/24 00:27:21;;;;;;;3.95;2.67;;;20.20;99.90;;;;;;5033057;28;20178;-51
2023/08/24 00:29:46;;;;;;;7.32;2.97;;;20.20;99.90;;;;;;5050858;28;20167;-51
2023/08/24 00:32:12;;;;;;;7.63;3.10;;;20.20;99.90;;;;;;5051167;28;20170;-51
2023/08/24 00:34:37;;;;;;;3.42;2.60;;;20.20;99.90;;;;;;5050733;28;20571;-51
2023/08/24 00:37:03;;;;;;;4.78;3.65;;;20.30;99.90;;;;;;5050775;28;20644;-52
2023/08/24 00:39:29;;;;;;;14.25;8.38;;;20.20;99.90;;;;;;5051211;28;20246;-52
2023/08/24 00:41:54;;;;;;;17.40;6.70;;;20.30;99.90;;;;;;5051233;28;20171;-51
2023/08/24 00:44:20;;;;;;;4.18;3.10;;;20.30;99.90;;;;;;5050765;28;20166;-52
2023/08/24 00:46:46;;;;;;;9.23;3.35;;;20.30;99.90;;;;;;5050680;28;20661;-52
2023/08/24 00:49:11;;;;;;;5.22;2.88;;;20.30;99.90;;;;;;5050987;28;20622;-51
2023/08/24 00:51:38;;;;;;;8.07;2.97;;;20.30;99.90;;;;;;5053596;28;20198;-51
2023/08/24 00:54:04;;;;;;;4.97;2.95;;;20.20;99.90;;;;;;5054243;28;20202;-51
2023/08/24 00:56:30;;;;;;;7.90;3.55;;;20.20;99.90;;;;;;5054064;28;20210;-51
2023/08/24 00:58:57;;;;;;;6.82;4.25;;;20.30;99.90;;;;;;5054504;28;20177;-51
2023/08/24 01:01:24;;;;;;;5.88;3.72;;;20.30;99.90;;;;;;5036235;28;20174;-52
2023/08/24 01:03:49;;;;;;;5.68;3.60;;;20.20;99.90;;;;;;5054001;28;20646;-51
2023/08/24 01:06:15;;;;;;;8.35;3.13;;;20.30;99.90;;;;;;5036082;28;20190;-51
2023/08/24 01:08:41;;;;;;;4.90;3.20;;;20.20;99.90;;;;;;5053959;28;20170;-51
2023/08/24 01:11:32;;;;;;;3.63;2.95;;;20.30;99.90;;;;;;5053860;28;20166;-51
2023/08/24 01:14:04;;;;;;;7.63;3.42;;;20.20;99.90;;;;;;5054063;28;20223;-51
2023/08/24 01:16:32;;;;;;;4.10;3.03;;;20.20;99.90;;;;;;5053762;28;20655;-51
2023/08/24 01:18:59;;;;;;;4.53;3.00;;;20.20;99.90;;;;;;5054404;28;20170;-51
2023/08/24 01:21:29;;;;;;;8.40;3.42;;;20.30;99.90;;;;;;5054208;28;20511;-52
2023/08/24 01:24:12;;;;;;;6.38;3.10;;;20.50;99.90;;;;;;5054358;28;20175;-51
2023/08/24 01:26:39;;;;;;;8.88;3.67;;;20.20;99.90;;;;;;5053613;28;20644;-51
2023/08/24 01:29:07;;;;;;;6.53;3.50;;;20.20;99.90;;;;;;5053583;28;20620;-51
2023/08/24 01:31:32;;;;;;;8.38;3.00;;;20.20;99.90;;;;;;5035815;28;20205;-51
2023/08/24 01:33:58;;;;;;;5.95;3.15;;;20.20;99.90;;;;;;5053962;28;20198;-51
2023/08/24 01:36:25;;;;;;;7.53;3.33;;;20.00;99.90;;;;;;5053609;28;20569;-51
2023/08/24 01:39:07;;;;;;;7.30;3.25;;;20.00;99.90;;;;;;5053383;28;20675;-51
2023/08/24 01:41:38;;;;;;;6.43;2.95;;;19.90;99.90;;;;;;5053639;28;20271;-51
2023/08/24 01:44:06;;;;;;;5.80;2.83;;;19.80;99.90;;;;;;5053325;28;20174;-51
2023/08/24 01:46:34;;;;;;;8.13;3.00;;;19.90;99.90;;;;;;5053232;28;20229;-51
2023/08/24 01:49:00;;;;;;;5.32;2.90;;;19.90;99.90;;;;;;5053269;28;20177;-51
2023/08/24 01:51:26;;;;;;;6.10;3.20;;;19.80;99.90;;;;;;5053539;28;20166;-52
2023/08/24 01:53:53;;;;;;;5.15;3.17;;;19.80;99.90;;;;;;5053163;28;20213;-51
2023/08/24 01:56:18;;;;;;;6.35;3.90;;;19.80;99.90;;;;;;5053291;28;20772;-51
2023/08/24 01:58:44;;;;;;;9.77;3.53;;;19.80;99.90;;;;;;5052846;28;20246;-51
2023/08/24 02:01:10;;;;;;;5.32;3.65;;;19.80;99.90;;;;;;5052525;28;20253;-51
2023/08/24 02:03:36;;;;;;;4.85;3.08;;;19.70;99.90;;;;;;5052916;28;20684;-49
2023/08/24 02:06:01;;;;;;;6.78;3.50;;;19.80;99.90;;;;;;5053161;28;20175;-49
2023/08/24 02:08:27;;;;;;;9.95;4.07;;;19.80;99.90;;;;;;5053317;28;20640;-49
2023/08/24 02:10:52;;;;;;;5.50;3.38;;;19.80;99.90;;;;;;5052770;28;20177;-49
2023/08/24 02:13:18;;;;;;;5.53;2.80;;;19.70;99.90;;;;;;5052694;28;21070;-49
2023/08/24 02:15:44;;;;;;;6.93;3.88;;;19.60;99.90;;;;;;5052907;28;20374;-49
2023/08/24 02:18:09;;;;;;;4.85;3.25;;;19.60;99.90;;;;;;5052693;28;20265;-49
2023/08/24 02:20:38;;;;;;;7.88;3.97;;;19.60;99.90;;;;;;5052583;28;20194;-49
2023/08/24 02:23:04;;;;;;;7.55;3.85;;;19.70;99.90;;;;;;5052596;28;20258;-49
2023/08/24 02:25:30;;;;;;;10.55;3.20;;;19.70;99.90;;;;;;5052469;28;20174;-51
2023/08/24 02:27:56;;;;;;;8.73;3.58;;;19.60;99.90;;;;;;5052904;28;20167;-52
2023/08/24 02:30:21;;;;;;;6.90;3.40;;;19.60;99.90;;;;;;5052410;28;20261;-51
2023/08/24 02:32:47;;;;;;;7.72;3.88;;;19.60;99.90;;;;;;5052372;28;20182;-51
2023/08/24 02:35:12;;;;;;;6.32;3.53;;;19.50;99.90;;;;;;5052153;28;20209;-51
2023/08/24 02:37:38;;;;;;;5.97;3.70;;;19.60;99.90;;;;;;5052292;28;20171;-51
2023/08/24 02:40:05;;;;;;;7.43;3.33;;;19.60;99.90;;;;;;5052456;28;20170;-51
2023/08/24 02:42:32;;;;;;;7.32;3.97;;;19.50;99.90;;;;;;5052318;28;20163;-51
2023/08/24 02:44:58;;;;;;;6.53;3.67;;;19.50;99.90;;;;;;5052537;28;20170;-51
2023/08/24 02:47:23;;;;;;;7.80;4.05;;;19.50;99.90;;;;;;5052641;28;20182;-51
2023/08/24 02:49:49;;;;;;;6.53;3.75;;;19.60;99.90;;;;;;5052047;28;20626;-51
2023/08/24 02:52:14;;;;;;;7.85;3.50;;;19.60;99.90;;;;;;5051993;28;20657;-51
2023/08/24 02:54:40;;;;;;;6.70;3.83;;;19.60;99.90;;;;;;5051898;28;20163;-52
2023/08/24 02:57:05;;;;;;;5.15;3.60;;;19.60;99.90;;;;;;5051987;28;20225;-52
2023/08/24 02:59:31;;;;;;;6.15;3.92;;;19.60;99.90;;;;;;5051941;28;20654;-52
2023/08/24 03:01:58;;;;;;;8.00;3.63;;;19.70;99.90;;;;;;5052557;28;20198;-52
2023/08/24 03:04:23;;;;;;;8.55;3.83;;;19.60;99.90;;;;;;5052155;28;20167;-52
2023/08/24 03:06:49;;;;;;;11.20;4.05;;;19.60;99.90;;;;;;5051842;28;20171;-52
2023/08/24 03:09:14;;;;;;;13.35;4.10;;;19.60;99.90;;;;;;5051731;28;20159;-52
2023/08/24 03:11:41;;;;;;;5.45;3.92;;;19.60;99.90;;;;;;5051200;28;20159;-52
2023/08/24 03:14:06;;;;;;;6.22;4.00;;;19.70;99.90;;;;;;5050704;28;20234;-52
2023/08/24 03:16:32;;;;;;;14.27;4.57;;;19.60;99.90;;;;;;5051590;28;20277;-51
2023/08/24 03:18:58;;;;;;;7.90;4.35;;;19.50;99.90;;;;;;5052347;28;20163;-52
2023/08/24 03:21:23;;;;;;;7.07;3.70;;;19.60;99.90;;;;;;5052016;28;20575;-52
2023/08/24 03:23:49;;;;;;;8.65;3.97;;;19.70;99.90;;;;;;5051468;28;20250;-52
2023/08/24 03:26:16;;;;;;;4.45;3.58;;;19.70;99.90;;;;;;5051576;28;20163;-51
2023/08/24 03:28:42;;;;;;;6.03;4.15;;;19.70;99.90;;;;;;5051515;28;20154;-52
2023/08/24 03:31:08;;;;;;;6.35;3.38;;;19.70;99.90;;;;;;5051504;28;20174;-52
2023/08/24 03:33:34;;;;;;;7.78;3.95;;;19.80;99.90;;;;;;5051707;28;20561;-51
2023/08/24 03:36:00;;;;;;;9.77;4.05;;;19.70;99.90;;;;;;5051486;28;20206;-51
2023/08/24 03:38:26;;;;;;;7.65;4.13;;;19.60;99.90;;;;;;5051710;28;20212;-51
2023/08/24 03:40:59;;;;;;;8.82;3.72;;;19.50;99.90;;;;;;5051584;28;20178;-52
2023/08/24 03:43:24;;;;;;;8.38;4.75;;;19.40;99.90;;;;;;5051769;28;20665;-52
2023/08/24 03:45:50;;;;;;;9.13;4.32;;;19.30;99.90;;;;;;5051292;28;20174;-52
2023/08/24 03:48:16;;;;;;;6.25;4.25;;;19.40;99.90;;;;;;5051241;28;20174;-52
2023/08/24 03:50:41;;;;;;;8.50;4.18;;;19.30;99.90;;;;;;5051147;28;20752;-51
2023/08/24 03:53:07;;;;;;;12.23;4.18;;;19.30;99.90;;;;;;5051222;28;20190;-51
2023/08/24 03:55:33;;;;;;;7.95;4.35;;;19.20;99.90;;;;;;5051145;28;20275;-52
2023/08/24 03:57:58;;;;;;;6.95;4.40;;;19.20;99.90;;;;;;5051408;28;20516;-51
2023/08/24 04:00:24;;;;;;;7.97;4.05;;;19.40;99.90;;;;;;5051684;28;20198;-52
2023/08/24 04:02:49;;;;;;;10.52;4.47;;;19.50;99.90;;;;;;5051401;28;20171;-52
2023/08/24 04:05:15;;;;;;;6.22;3.97;;;19.50;99.90;;;;;;5051121;28;20181;-51
2023/08/24 04:07:41;;;;;;;6.47;4.03;;;19.40;99.90;;;;;;5051148;28;20171;-51
2023/08/24 04:10:08;;;;;;;9.30;4.32;;;19.60;99.90;;;;;;5051336;28;20229;-51
2023/08/24 04:12:33;;;;;;;8.07;3.95;;;19.50;99.90;;;;;;5050874;28;20210;-51
2023/08/24 04:14:59;;;;;;;9.20;4.05;;;19.60;99.90;;;;;;5051098;28;20205;-51
2023/08/24 04:17:25;;;;;;;7.03;4.07;;;19.60;99.90;;;;;;5051438;28;20530;-50
2023/08/24 04:19:51;;;;;;;6.85;4.53;;;19.70;99.90;;;;;;5051009;28;20209;-50
2023/08/24 04:22:16;;;;;;;7.53;4.55;;;19.70;99.90;;;;;;5050855;28;20199;-47
2023/08/24 04:24:42;;;;;;;5.55;3.80;;;19.70;99.90;;;;;;5052634;28;20194;-48
2023/08/24 04:27:08;;;;;;;5.93;4.00;;;19.60;99.90;;;;;;5054861;28;20166;-47
2023/08/24 04:29:33;;;;;;;8.63;4.95;;;19.70;99.90;;;;;;5037263;28;20193;-47
2023/08/24 04:31:59;;;;;;;11.00;4.72;;;19.70;99.90;;;;;;5036931;28;20508;-47
2023/08/24 04:34:24;;;;;;;7.90;4.40;;;19.60;99.90;;;;;;5055093;28;20219;-47
2023/08/24 04:36:50;;;;;;;10.70;4.60;;;19.50;99.90;;;;;;5054538;28;20206;-46
2023/08/24 04:39:16;;;;;;;11.82;5.13;;;19.40;99.90;;;;;;5054388;28;20171;-49
2023/08/24 04:41:42;;;;;;;9.73;4.50;;;19.40;99.90;;;;;;5054478;28;20638;-47
2023/08/24 04:44:07;;;;;;;10.70;4.22;;;19.40;99.90;;;;;;5054430;28;20216;-47
2023/08/24 04:46:34;;;;;;;7.57;4.68;;;19.60;99.90;;;;;;5054411;28;20170;-47
2023/08/24 04:48:59;;;;;;;7.72;5.10;;;19.60;99.90;;;;;;5054576;28;20167;-47
2023/08/24 04:51:27;;;;;;;10.10;5.28;;;19.60;99.90;;;;;;5054661;28;20178;-47
2023/08/24 04:53:53;;;;;;;8.60;5.13;;;19.60;99.90;;;;;;5054086;28;20541;-47
2023/08/24 04:56:19;;;;;;;5.22;4.45;;;19.60;99.90;;;;;;5054150;28;20293;-47
2023/08/24 04:58:56;;;;;;;12.05;5.32;;;19.70;99.90;;;;;;5054209;28;20159;-48
2023/08/24 05:01:25;;;;;;;7.45;4.97;;;19.70;99.90;;;;;;5054180;28;20653;-47
2023/08/24 05:03:52;;;;;;;9.35;5.68;;;19.70;99.90;;;;;;5053561;28;20666;-50
2023/08/24 05:06:17;;;;;;;10.25;6.32;;;19.70;99.90;;;;;;5054174;28;20254;-50
2023/08/24 05:08:43;;;;;;;8.80;5.88;;;19.60;99.90;;;;;;5053961;28;20205;-48
2023/08/24 05:11:24;;;;;;;10.48;6.03;;;19.70;99.90;;;;;;5054008;28;20703;-49
2023/08/24 05:13:50;;;;;;;8.68;5.93;;;19.70;99.90;;;;;;5053693;28;20218;-49
2023/08/24 05:16:16;;;;;;;13.45;6.82;;;19.70;99.90;;;;;;5053766;28;20747;-50
2023/08/24 05:18:41;;;;;;;10.48;5.82;;;19.60;99.90;;;;;;5053813;28;20629;-48
2023/08/24 05:21:07;;;;;;;10.60;6.47;;;19.70;99.90;;;;;;5053754;28;20172;-48
2023/08/24 05:23:34;;;;;;;11.65;6.85;;;19.60;99.90;;;;;;5053722;28;20170;-47
2023/08/24 05:26:00;;;;;;;14.50;6.63;;;19.70;99.90;;;;;;5053628;28;20634;-47
2023/08/24 05:28:27;;;;;;;9.38;6.25;;;19.70;99.90;;;;;;5053849;28;20619;-47
2023/08/24 05:30:53;;;;;;;11.32;7.00;;;19.80;99.90;;;;;;5053583;28;20162;-49
2023/08/24 05:33:20;;;;;;;13.18;7.63;;;19.70;99.90;;;;;;5053449;28;20162;-48
2023/08/24 05:35:46;;;;;;;13.85;7.50;;;19.70;99.90;;;;;;5052658;28;20203;-49
2023/08/24 05:38:13;;;;;;;11.55;7.63;;;19.80;99.90;;;;;;5053310;28;20174;-47
2023/08/24 05:40:39;;;;;;;12.40;8.15;;;19.70;99.90;;;;;;5053338;28;20158;-48
2023/08/24 05:43:04;;;;;;;13.00;8.40;;;19.70;99.90;;;;;;5053540;28;20177;-47
2023/08/24 05:45:30;;;;;;;14.63;8.55;;;19.70;99.90;;;;;;5053253;28;20167;-48
2023/08/24 05:47:55;;;;;;;18.73;9.88;;;19.70;99.90;;;;;;5053579;28;20175;-47
2023/08/24 05:50:21;;;;;;;11.77;8.90;;;19.80;99.90;;;;;;5053243;28;20166;-48
2023/08/24 05:52:47;;;;;;;9.00;7.82;;;19.80;99.90;;;;;;5053171;28;20205;-47
2023/08/24 05:55:12;;;;;;;14.60;8.65;;;19.80;99.90;;;;;;5053068;28;20210;-48
2023/08/24 05:57:38;;;;;;;11.93;7.60;;;19.80;99.90;;;;;;5053064;28;20210;-47
2023/08/24 06:00:09;;;;;;;10.45;6.72;;;19.90;99.90;;;;;;5053008;28;20167;-47
2023/08/24 06:02:35;;;;;;;13.63;7.40;;;19.90;99.90;;;;;;5053143;28;20261;-49
2023/08/24 06:05:01;;;;;;;10.77;7.07;;;19.90;99.90;;;;;;5053136;28;20261;-47
2023/08/24 06:07:26;;;;;;;13.20;7.13;;;20.00;99.90;;;;;;5053241;28;20262;-49
2023/08/24 06:09:52;;;;;;;9.15;7.00;;;19.90;99.90;;;;;;5052871;28;20173;-47
2023/08/24 06:12:18;;;;;;;13.07;6.35;;;20.00;99.90;;;;;;5052501;28;20202;-48
2023/08/24 06:14:43;;;;;;;12.57;6.47;;;20.00;99.90;;;;;;5052731;28;20174;-48
2023/08/24 06:17:09;;;;;;;12.45;6.30;;;20.00;99.90;;;;;;5052709;28;20626;-49
2023/08/24 06:19:34;;;;;;;8.88;6.05;;;19.90;99.90;;;;;;5052695;28;20242;-49
2023/08/24 06:22:00;;;;;;;11.32;5.95;;;19.90;99.90;;;;;;5052560;28;20162;-47
2023/08/24 06:24:26;;;;;;;8.95;6.20;;;20.00;99.90;;;;;;5052844;28;20585;-47
2023/08/24 06:26:51;;;;;;;8.13;5.80;;;20.20;99.90;;;;;;5052578;28;20503;-47
2023/08/24 06:29:17;;;;;;;13.52;6.25;;;20.30;99.90;;;;;;5034712;28;20171;-47
2023/08/24 06:31:42;;;;;;;10.52;6.20;;;20.40;99.90;;;;;;5052624;28;20178;-47
2023/08/24 06:34:08;;;;;;;10.23;6.07;;;20.70;99.90;;;;;;5052417;28;20170;-46
2023/08/24 06:36:33;;;;;;;10.38;6.55;;;20.50;99.90;;;;;;5051930;28;20286;-46
2023/08/24 06:38:59;;;;;;;15.68;6.03;;;20.50;99.90;;;;;;5052431;28;20178;-47
2023/08/24 06:41:24;;;;;;;9.88;6.78;;;20.60;99.90;;;;;;5052357;28;20656;-47
2023/08/24 06:43:50;;;;;;;13.45;6.32;;;20.70;99.90;;;;;;5052179;28;20213;-47
2023/08/24 06:46:15;;;;;;;10.85;5.72;;;20.80;99.90;;;;;;5052499;28;20171;-47
2023/08/24 06:48:44;;;;;;;9.98;5.85;;;20.80;99.90;;;;;;5052137;28;20236;-47
2023/08/24 06:51:10;;;;;;;11.52;6.05;;;20.90;99.90;;;;;;5052303;28;20171;-47
2023/08/24 06:53:35;;;;;;;6.90;5.97;;;21.00;99.90;;;;;;5052066;28;20221;-47
2023/08/24 06:56:01;;;;;;;13.23;6.15;;;23.90;99.90;;;;;;5051632;28;20257;-47
2023/08/24 06:58:27;;;;;;;10.30;6.13;;;21.10;99.90;;;;;;5052238;28;20169;-47
2023/08/24 07:00:54;;;;;;;9.40;6.55;;;21.10;99.90;;;;;;5051773;28;20170;-46
2023/08/24 07:03:19;;;;;;;12.38;6.50;;;21.10;99.90;;;;;;5051744;28;20177;-46
2023/08/24 07:05:46;;;;;;;11.23;5.90;;;21.30;99.90;;;;;;5067252;28;20380;-47
2023/08/24 07:08:13;;;;;;;16.35;5.80;;;21.60;99.90;;;;;;5051631;28;20165;-47
2023/08/24 07:10:38;;;;;;;10.15;5.85;;;21.70;99.90;;;;;;5051780;28;20221;-47
2023/08/24 07:13:07;;;;;;;12.07;5.53;;;21.80;99.90;;;;;;5051704;28;20206;-46
2023/08/24 07:15:34;;;;;;;9.98;5.57;;;21.90;99.90;;;;;;5051757;28;20610;-45
2023/08/24 07:18:02;;;;;;;9.25;5.05;;;21.90;99.90;;;;;;5051498;28;20294;-46
2023/08/24 07:20:28;;;;;;;10.38;5.28;;;22.10;99.90;;;;;;5051816;28;20171;-46
2023/08/24 07:22:53;;;;;;;12.43;5.75;;;22.30;99.90;;;;;;5051966;28;20536;-46
2023/08/24 07:25:21;;;;;;;11.23;5.35;;;22.30;99.90;;;;;;5051437;28;20597;-46
2023/08/24 07:27:47;;;;;;;7.80;5.57;;;22.60;99.90;;;;;;5051742;28;20166;-46
2023/08/24 07:30:13;;;;;;;10.27;5.45;;;22.80;99.90;;;;;;5034036;28;20250;-47
2023/08/24 07:32:38;;;;;;;8.85;5.32;;;22.60;99.90;;;;;;5051090;28;20167;-46
2023/08/24 07:35:06;;;;;;;10.13;5.07;;;22.80;99.90;;;;;;5050354;28;20209;-46
2023/08/24 07:37:31;;;;;;;8.68;4.90;;;22.90;99.90;;;;;;5049781;28;20257;-52
2023/08/24 07:39:57;;;;;;;10.95;5.55;;;23.00;99.90;;;;;;5050037;28;20610;-52
2023/08/24 07:42:23;;;;;;;8.88;5.40;;;23.10;99.90;;;;;;5049911;28;20162;-52
2023/08/24 07:44:48;;;;;;;6.10;5.20;;;23.20;99.90;;;;;;5050038;28;20617;-53
2023/08/24 07:47:14;;;;;;;10.55;5.30;;;23.40;99.90;;;;;;5049707;28;20200;-51
2023/08/24 07:49:44;;;;;;;8.00;4.72;;;23.60;99.90;;;;;;5049573;28;20178;-52
2023/08/24 07:52:11;;;;;;;6.43;5.25;;;23.70;99.90;;;;;;5049532;28;20178;-53
2023/08/24 07:54:36;;;;;;;9.32;4.90;;;23.60;99.90;;;;;;5049530;28;20178;-48
2023/08/24 07:57:02;;;;;;;10.20;5.25;;;23.70;99.90;;;;;;5049200;28;20543;-51
2023/08/24 07:59:27;;;;;;;7.15;5.13;;;23.80;99.90;;;;;;5050746;28;20564;-49
2023/08/24 08:01:53;;;;;;;9.15;4.97;;;23.80;99.90;;;;;;5053630;28;20181;-50
2023/08/24 08:04:18;;;;;;;7.57;5.00;;;23.90;99.90;;;;;;5053564;28;20166;-50
2023/08/24 08:06:44;;;;;;;10.00;5.18;;;24.10;99.90;;;;;;5055458;28;20170;-48
2023/08/24 08:09:09;;;;;;;8.75;4.65;;;24.30;99.90;;;;;;5055127;28;20178;-47
2023/08/24 08:11:35;;;;;;;10.45;4.80;;;24.30;99.90;;;;;;5055296;28;20246;-48
2023/08/24 08:14:01;;;;;;;10.10;4.32;;;24.40;99.90;;;;;;5054825;28;20583;-47
2023/08/24 08:16:26;;;;;;;7.55;4.38;;;24.50;99.90;;;;;;5055402;28;20218;-48
2023/08/24 08:18:52;;;;;;;5.10;4.00;;;24.60;99.90;;;;;;5054966;28;20170;-47
2023/08/24 08:21:18;;;;;;;9.55;4.57;;;24.80;99.90;;;;;;5054877;28;20228;-48
2023/08/24 08:23:45;;;;;;;8.13;4.22;;;24.60;99.90;;;;;;5070110;28;20166;-46
2023/08/24 08:26:11;;;;;;;7.13;4.40;;;24.80;99.90;;;;;;5055111;28;20198;-46
2023/08/24 08:28:37;;;;;;;9.85;4.88;;;25.00;99.90;;;;;;5054777;28;20170;-48
2023/08/24 08:31:03;;;;;;;6.75;4.50;;;25.10;99.90;;;;;;5054748;28;20210;-50
2023/08/24 08:33:29;;;;;;;6.72;3.95;;;25.20;99.90;;;;;;5036817;28;20162;-49
2023/08/24 08:35:55;;;;;;;7.20;4.53;;;25.40;99.90;;;;;;5054892;28;20600;-46
2023/08/24 08:38:25;;;;;;;7.97;4.63;;;25.40;99.90;;;;;;5054635;28;20162;-48
2023/08/24 08:40:54;;;;;;;9.50;4.70;;;25.20;99.90;;;;;;5054825;28;20253;-47
2023/08/24 08:43:22;;;;;;;7.45;4.55;;;25.50;99.90;;;;;;5054774;28;20170;-47
2023/08/24 08:45:49;;;;;;;9.07;4.13;;;25.50;99.90;;;;;;5054606;28;20198;-46
2023/08/24 08:48:15;;;;;;;7.65;4.07;;;25.70;99.90;;;;;;5054603;28;20529;-51
2023/08/24 08:50:41;;;;;;;9.50;4.25;;;25.60;99.90;;;;;;5054344;28;20166;-46
2023/08/24 08:53:06;;;;;;;7.00;4.80;;;25.90;99.90;;;;;;5054348;28;20641;-48
2023/08/24 08:55:32;;;;;;;8.55;4.20;;;25.90;99.90;;;;;;5054229;28;20200;-47
2023/08/24 08:58:00;;;;;;;9.13;4.40;;;25.90;99.90;;;;;;5054269;28;20166;-46
2023/08/24 09:00:27;;;;;;;7.80;3.95;;;26.30;99.90;;;;;;5054622;28;20268;-47
2023/08/24 09:02:55;;;;;;;6.75;4.22;;;26.30;99.90;;;;;;5054505;28;20552;-46
2023/08/24 09:05:20;;;;;;;7.63;4.10;;;26.50;99.90;;;;;;5054146;28;20166;-47
2023/08/24 09:07:47;;;;;;;9.13;4.50;;;26.60;99.90;;;;;;5054373;28;20177;-46
2023/08/24 09:10:13;;;;;;;6.50;3.72;;;26.50;99.90;;;;;;5053626;28;20505;-48
2023/08/24 09:12:39;;;;;;;6.45;3.85;;;26.60;99.90;;;;;;5053027;28;20256;-47
2023/08/24 09:15:06;;;;;;;6.03;3.90;;;26.60;99.90;;;;;;5053844;28;20170;-47
2023/08/24 09:17:33;;;;;;;6.90;3.88;;;26.60;99.90;;;;;;5054164;28;20174;-46
2023/08/24 09:19:59;;;;;;;10.45;4.22;;;26.80;99.90;;;;;;5053716;28;20652;-46
2023/08/24 09:22:25;;;;;;;8.00;3.67;;;26.90;99.90;;;;;;5054118;28;20171;-46
2023/08/24 09:24:51;;;;;;;6.68;3.63;;;27.00;99.90;;;;;;5053734;28;20163;-46
2023/08/24 09:27:18;;;;;;;9.50;3.30;;;27.00;99.90;;;;;;5053669;28;20175;-46
2023/08/24 09:29:52;;;;;;;5.47;2.83;;;27.10;99.90;;;;;;5053663;28;20173;-46
2023/08/24 09:32:26;;;;;;;9.82;3.10;;;27.10;99.90;;;;;;5053868;28;20223;-46
2023/08/24 09:34:52;;;;;;;5.13;3.00;;;27.30;99.90;;;;;;5069122;28;20166;-47
2023/08/24 09:37:18;;;;;;;7.30;3.17;;;27.40;99.90;;;;;;5053744;28;20240;-46
2023/08/24 09:39:44;;;;;;;4.90;2.92;;;27.40;99.90;;;;;;5053372;28;20528;-46
2023/08/24 09:42:10;;;;;;;5.75;2.88;;;27.50;99.90;;;;;;5053671;28;20185;-46
2023/08/24 09:44:36;;;;;;;4.70;3.17;;;27.40;99.90;;;;;;5035633;28;20572;-46
2023/08/24 09:47:02;;;;;;;4.57;3.10;;;27.50;99.90;;;;;;5053301;28;20631;-46
2023/08/24 09:49:28;;;;;;;5.95;3.05;;;27.60;99.90;;;;;;5053502;28;20174;-46
2023/08/24 09:51:57;;;;;;;6.57;3.15;;;27.40;99.90;;;;;;5053606;28;20170;-46
2023/08/24 09:54:27;;;;;;;7.47;3.08;;;27.40;99.90;;;;;;5053890;28;20190;-46
2023/08/24 09:56:54;;;;;;;4.28;3.10;;;27.80;99.90;;;;;;5053742;28;20214;-46
2023/08/24 09:59:24;;;;;;;4.45;3.10;;;27.80;99.90;;;;;;5053124;28;20162;-46
2023/08/24 10:01:54;;;;;;;5.53;3.08;;;27.90;99.90;;;;;;5053057;28;20167;-49
2023/08/24 10:04:31;;;;;;;8.50;3.25;;;27.90;99.90;;;;;;5053303;28;20174;-46
2023/08/24 10:07:15;;;;;;;7.85;3.50;;;27.80;99.90;;;;;;5053461;28;20496;-46
2023/08/24 10:09:59;;;;;;;7.22;3.22;;;27.50;99.90;;;;;;5052805;28;20255;-46
2023/08/24 10:12:28;;;;;;;8.23;2.95;;;27.50;99.90;;;;;;5052898;28;20762;-48
2023/08/24 10:15:11;;;;;;;10.10;3.00;;;27.50;99.90;;;;;;5052831;28;20171;-46
2023/08/24 10:17:39;;;;;;;7.03;3.00;;;27.60;99.90;;;;;;5052718;28;20166;-47
2023/08/24 10:20:08;;;;;;;7.75;3.30;;;27.60;99.90;;;;;;5052279;28;20178;-47
2023/08/24 10:22:35;;;;;;;6.53;3.03;;;27.60;99.90;;;;;;5051972;28;20639;-46
2023/08/24 10:25:05;;;;;;;6.43;2.88;;;27.60;99.90;;;;;;5052589;28;20174;-46
2023/08/24 10:27:31;;;;;;;8.68;3.08;;;27.80;99.90;;;;;;5034919;28;20204;-47
2023/08/24 10:30:00;;;;;;;3.90;3.20;;;27.70;99.90;;;;;;5052820;28;20200;-47
2023/08/24 10:32:26;;;;;;;6.93;3.53;;;27.60;99.90;;;;;;5052799;28;20536;-52
2023/08/24 10:34:52;;;;;;;5.85;3.20;;;27.70;99.90;;;;;;5052025;28;20182;-52
2023/08/24 10:37:25;;;;;;;7.03;3.20;;;27.90;99.90;;;;;;5051986;28;20182;-54
2023/08/24 10:39:51;;;;;;;7.05;2.70;;;27.80;99.90;;;;;;5052208;28;20236;-52
2023/08/24 10:42:16;;;;;;;5.20;2.65;;;27.80;99.90;;;;;;5051770;28;20587;-51
2023/08/24 10:44:46;;;;;;;6.68;3.08;;;28.00;99.90;;;;;;5052094;28;20556;-52
2023/08/24 10:47:28;;;;;;;7.95;3.88;;;28.20;99.90;;;;;;5051744;28;20178;-52
2023/08/24 10:49:56;;;;;;;6.13;3.08;;;28.30;99.90;;;;;;5052575;28;20253;-53
2023/08/24 10:52:33;;;;;;;5.65;3.25;;;28.50;99.90;;;;;;5052052;28;20621;-47
2023/08/24 10:55:02;;;;;;;6.50;3.00;;;28.70;99.90;;;;;;5051335;28;20184;-49
2023/08/24 10:57:37;;;;;;;5.82;3.47;;;28.80;99.90;;;;;;5051999;28;20182;-51
2023/08/24 11:00:05;;;;;;;7.05;3.25;;;28.70;99.90;;;;;;5051410;28;20166;-52
2023/08/24 11:02:42;;;;;;;5.40;3.83;;;28.60;99.90;;;;;;5051693;28;20166;-52
2023/08/24 11:05:22;;;;;;;4.93;3.30;;;28.60;99.90;;;;;;5051851;28;20170;-51
2023/08/24 11:08:01;;;;;;;6.22;3.65;;;28.50;99.90;;;;;;5051560;28;20257;-49
2023/08/24 11:10:42;;;;;;;8.00;3.42;;;28.40;99.90;;;;;;5051910;28;20166;-49
2023/08/24 11:13:08;;;;;;;7.80;3.63;;;28.40;99.90;;;;;;5051123;28;20222;-46
2023/08/24 11:15:44;;;;;;;7.32;3.50;;;28.30;99.90;;;;;;5051267;28;20535;-47
2023/08/24 11:18:28;;;;;;;7.65;3.47;;;28.00;99.90;;;;;;5051344;28;20211;-51
2023/08/24 11:20:56;;;;;;;5.45;3.25;;;28.00;99.90;;;;;;5051907;28;20203;-49
2023/08/24 11:23:23;;;;;;;12.60;3.38;;;28.00;99.90;;;;;;5051398;28;20170;-52
2023/08/24 11:25:54;;;;;;;4.15;2.90;;;27.90;99.90;;;;;;5051614;28;20170;-52
2023/08/24 11:28:20;;;;;;;5.80;3.25;;;27.80;99.90;;;;;;5051307;28;20169;-54
2023/08/24 11:30:47;;;;;;;7.53;2.92;;;27.80;99.90;;;;;;5051313;28;20286;-53
2023/08/24 11:33:14;;;;;;;11.40;3.30;;;27.80;99.90;;;;;;5051242;28;20154;-46
2023/08/24 11:35:43;;;;;;;10.25;3.08;;;27.90;99.90;;;;;;5050750;28;20294;-49
2023/08/24 11:38:08;;;;;;;5.55;3.30;;;27.80;99.90;;;;;;5051237;28;20247;-47
2023/08/24 11:40:34;;;;;;;10.18;3.50;;;27.80;99.90;;;;;;5050840;28;20223;-47
2023/08/24 11:42:59;;;;;;;7.40;3.20;;;27.90;99.90;;;;;;5050977;28;20174;-47
2023/08/24 11:45:31;;;;;;;7.63;2.92;;;28.00;99.90;;;;;;5051022;28;20173;-46
2023/08/24 11:47:59;;;;;;;7.53;3.03;;;27.80;99.90;;;;;;5051637;28;20216;-47
2023/08/24 11:50:25;;;;;;;8.75;2.92;;;27.90;99.90;;;;;;5051861;28;20567;-47
2023/08/24 11:52:53;;;;;;;5.47;3.05;;;27.90;99.90;;;;;;5050831;28;20168;-46
2023/08/24 11:55:20;;;;;;;6.63;3.10;;;27.80;99.90;;;;;;5050287;28;20205;-47
2023/08/24 11:57:46;;;;;;;5.25;3.08;;;27.80;99.90;;;;;;5050570;28;20162;-46
2023/08/24 12:00:13;;;;;;;9.80;3.20;;;27.70;99.90;;;;;;5050288;28;20185;-46
2023/08/24 12:02:40;;;;;;;10.80;3.42;;;27.70;99.90;;;;;;5050908;28;20190;-48
2023/08/24 12:05:07;;;;;;;5.20;3.33;;;27.50;99.90;;;;;;5050592;28;20173;-46
2023/08/24 12:07:32;;;;;;;7.68;2.70;;;27.40;99.90;;;;;;5050446;28;20174;-46
2023/08/24 12:10:01;;;;;;;6.63;3.22;;;27.20;99.90;;;;;;5050919;28;20158;-46
2023/08/24 12:12:28;;;;;;;7.38;3.13;;;26.90;99.90;;;;;;5050903;28;20214;-47
2023/08/24 12:14:55;;;;;;;4.95;3.08;;;26.60;99.90;;;;;;5051425;28;20170;-46
2023/08/24 12:17:20;;;;;;;6.05;3.67;;;26.40;99.90;;;;;;5050851;28;20181;-46
2023/08/24 12:19:58;;;;;;;9.98;3.85;;;26.20;99.90;;;;;;5050677;28;20163;-47
2023/08/24 12:22:24;;;;;;;8.05;3.65;;;25.90;99.90;;;;;;5050637;28;20566;-47
2023/08/24 12:24:49;;;;;;;8.02;4.03;;;25.60;99.90;;;;;;5050662;28;20608;-47
2023/08/24 12:27:26;;;;;;;10.30;3.63;;;25.40;99.90;;;;;;5050681;28;20166;-46
2023/08/24 12:29:52;;;;;;;7.07;3.55;;;25.30;99.90;;;;;;5050724;28;20189;-46
2023/08/24 12:32:26;;;;;;;11.82;4.38;;;25.20;99.90;;;;;;5050083;28;20622;-47
2023/08/24 12:34:52;;;;;;;8.45;3.83;;;25.10;99.90;;;;;;5050394;28;20176;-46
2023/08/24 12:37:17;;;;;;;10.65;4.50;;;25.20;99.90;;;;;;5049785;28;20205;-46
2023/08/24 12:39:43;;;;;;;9.23;5.13;;;25.20;99.90;;;;;;5050361;28;20167;-46
2023/08/24 12:42:09;;;;;;;13.38;4.50;;;25.20;99.90;;;;;;5050531;28;20174;-48